Edler, Colorado
Current Conditions -  °F | °C
As of 3:53 PM on Saturday 25 Oct 2014 (Local Time) from KLAA Reporting Station
Clear Clear  
Wind Chill: 87°   Ceiling: Unl
Heat Index: 87°   Visibility: 10mi
Dew Point: 33°   Wind: 6mph
Humidity: 15%   Direction: NA
Pressure: 30"   Gusts: NA
Location:  37.4412°N, 102.623°W
Report Text: KLAA 252153Z AUTO VRB05KT 10SM CLR 31/01 A3000 RMK AO2 SLP119 T03060006
Loading
Personal Weather Stations






























Interactive Weather Map
Tropical Storm Tracking
New forecast layout! Learn more

10-Day Weather Forecast

Advertisements
Track Severe Weather on mobile